Tuesday, October 23, 2018, 8:42 PM EDT
Back to Local

KORE, Orange, Orange Municipal Airport

Location: Orange, MA, United States Lat: 42.572
Local Time: 8:42 PM EDT ( 0:42 GMT) Lon: -72.278
Time Zone: US/Eastern Elev: 554 ft

Show me the last for .
Show Decoded

2018-10-23 19:52 METAR KORE 232352Z AUTO 29003KT 7SM FEW007 SCT026 BKN120 06/05 A2992 RMK AO2
                 SLP136 60017 T00610050 10139 20056 53007 =
2018-10-23 19:37 METAR KORE 232337Z AUTO 36005KT 4SM BR FEW007 SCT027 BKN075 06/04 A2991 RMK AO2
                 T00610044 =
2018-10-23 18:55 METAR KORE 232255Z AUTO 00000KT 4SM BR FEW090 06/04 A2990 RMK AO2 LTG DSNT NW
                 T00610044 =
2018-10-23 18:52 METAR KORE 232252Z AUTO 06004KT 1 3/4SM BR FEW090 06/04 A2990 RMK AO2 LTG DSNT
                 NW SLP129 T00610044 =
2018-10-23 18:49 METAR KORE 232249Z AUTO 06004KT 1 1/4SM BR FEW002 FEW090 06/04 A2990 RMK AO2 LTG
                 DSNT NW =
2018-10-23 18:40 METAR KORE 232240Z AUTO 08003KT 3/4SM BR FEW002 FEW100 06/04 A2990 RMK AO2 LTG
                 DSNT NW T00560039 =
2018-10-23 18:26 METAR KORE 232226Z AUTO 00000KT 3/4SM BR VV002 06/04 A2990 RMK AO2 LTG DSNT W
                 T00610044 =
2018-10-23 18:23 METAR KORE 232223Z AUTO 00000KT 1 1/4SM BR FEW002 06/04 A2990 RMK AO2 T00610044
                 =
2018-10-23 18:21 METAR KORE 232221Z AUTO 00000KT 1 3/4SM BR CLR 06/04 A2990 RMK AO2 VIS 1V5
                 T00610044 =
2018-10-23 17:52 METAR KORE 232152Z AUTO 00000KT 10SM CLR 08/06 A2990 RMK AO2 SLP130 T00780056 =
2018-10-23 16:52 METAR KORE 232052Z AUTO 08004KT 10SM FEW100 10/07 A2990 RMK AO2 LTG DSNT E AND
                 SE RAE28 TSE16 SLP127 P0016 60017 T01000067 56021 =
2018-10-23 16:29 METAR KORE 232029Z AUTO 35008KT 10SM FEW035 SCT048 OVC100 09/07 A2990 RMK AO2
                 LTG DSNT NE-S RAE28 TSE16 P0016 T00940067 =
2018-10-23 16:16 METAR KORE 232016Z AUTO VRB04KT 5SM VCTS -RA FEW027 BKN035 OVC048 10/06 A2989
                 RMK AO2 LTG DSNT ALQDS TSE16 P0015 T01000056 =
2018-10-23 16:07 METAR KORE 232007Z AUTO 28006KT 2SM TSRA BKN027 BKN037 OVC047 09/04 A2991 RMK
                 AO2 LTG DSNT ALQDS P0014 T00890044 =
2018-10-23 15:52 METAR KORE 231952Z AUTO 5SM -TSRA BKN027 BKN033 OVC075 13/08 A2990 RMK AO2 LTG
                 DSNT ALQDS RAE03B36 TSB50 SLP130 P0001 T01280078 =
2018-10-23 15:42 METAR KORE 231942Z AUTO 00000KT 10SM VCTS -RA SCT032 BKN048 OVC095 13/07 A2989
                 RMK AO2 LTG DSNT ALQDS RAE03B36 P0000 T01330067 =
2018-10-23 14:52 METAR KORE 231852Z AUTO 13008KT 10SM -RA SCT028 BKN034 OVC070 13/07 A2992 RMK
                 AO2 RAB49 SLP134 P0000 T01330067 =
2018-10-23 14:23 METAR KORE 231823Z AUTO 13007KT 10SM FEW028 BKN047 OVC075 13/06 A2994 RMK AO2
                 T01330061 =
2018-10-23 13:52 METAR KORE 231752Z AUTO 15007KT 10SM BKN029 BKN043 OVC055 13/06 A2996 RMK AO2
                 SLP148 T01330056 10133 20039 58038 =
2018-10-23 13:42 METAR KORE 231742Z AUTO 16008KT 10SM BKN029 OVC034 13/06 A2997 RMK AO2 T01280056
                 =
2018-10-23 12:52 METAR KORE 231652Z AUTO 15007KT 10SM SCT036 BKN045 BKN080 13/05 A2999 RMK AO2
                 SLP160 T01280050 =
2018-10-23 11:52 METAR KORE 231552Z AUTO 17007KT 10SM FEW035 BKN044 OVC085 12/04 A3005 RMK AO2
                 SLP179 T01170039 =
2018-10-23 10:52 METAR KORE 231452Z AUTO 00000KT 10SM BKN100 08/03 A3007 RMK AO2 SLP187 T00830028
                 58012 =
2018-10-23 09:52 METAR KORE 231352Z AUTO 00000KT 10SM BKN110 06/02 A3009 RMK AO2 SLP195 T00610022
                 =
2018-10-23 08:52 METAR KORE 231252Z AUTO 00000KT 10SM OVC110 04/02 A3010 RMK AO2 SLP198 T00440017
                 =
2018-10-23 07:52 METAR KORE 231152Z AUTO 00000KT 10SM OVC095 03/02 A3011 RMK AO2 SLP201 T00330017
                 10033 20028 55006 =
2018-10-23 06:52 METAR KORE 231052Z AUTO 00000KT 10SM SCT070 OVC095 03/01 A3010 RMK AO2 SLP199
                 T00330011 =
2018-10-23 05:52 METAR KORE 230952Z AUTO 00000KT 10SM OVC095 03/01 A3012 RMK AO2 SLP203 T00330011
                 =
2018-10-23 04:52 METAR KORE 230852Z AUTO 00000KT 10SM OVC090 03/01 A3013 RMK AO2 SLP206 T00330011
                 58009 =
2018-10-23 03:52 METAR KORE 230752Z AUTO 00000KT 10SM OVC085 03/01 A3014 RMK AO2 SLP209 T00330011
                 =
2018-10-23 02:52 METAR KORE 230652Z AUTO 00000KT 10SM OVC080 03/01 A3015 RMK AO2 SLP215 T00330011
                 =
2018-10-23 01:52 METAR KORE 230552Z AUTO 00000KT 10SM OVC080 03/01 A3016 RMK AO2 SLP216 T00330006
                 10072 20017 58005 =
2018-10-23 00:52 METAR KORE 230452Z AUTO 00000KT 10SM OVC080 03/01 A3016 RMK AO2 SLP219 T00280006
                 400941061 =
2018-10-22 23:52 METAR KORE 230352Z AUTO 00000KT 10SM CLR 02/M01 A3017 RMK AO2 SLP223 T00171006 =
2018-10-22 22:52 METAR KORE 230252Z AUTO 00000KT 10SM OVC090 05/01 A3017 RMK AO2 SLP222 T00500006
                 51003 =
2018-10-22 21:52 METAR KORE 230152Z AUTO 16003KT 10SM OVC070 07/00 A3017 RMK AO2 SLP221 T00670000
                 =
2018-10-22 20:52 METAR KORE 230052Z AUTO 17006KT 10SM OVC070 07/M01 A3017 RMK AO2 SLP221
                 T00721006 =

Support USWX by starting your Amazon purchase here.